Wausau Downtown Airport
KAUW : now visible

Airfield :











YOU CAN JOIN US ON...

 
LOGIN :

Register | Disclaimer

   EN    FR    IT 

 









Legend :    VFR   Marginal VFR   IFR   Intensive IFR   Very Intensive IFR
Visi :
Ceiling :
>= 8 km
>= 3000ft
5 to 8 km
1000 to 3000 ft
1500m to 5 km
500 to 1000 ft
800 to 1500m
200 to 500 ft
< 800m
< 200 ft
Symbols :   Thunderstorms  Fog  Heavy snow  Heavy precipitations  Wind > 20 kt






- Airport Elevation : 1201 ft


KAUW - Wausau Downtown

CURRENT METAR :
  • 251019Z AUTO 10006KT 3/4SM BR OVC003 16/16 A2986 RMK AO2 T01560156

EXPIRED METARs :
  • 251008Z AUTO 11003KT 1 3/4SM BR OVC003 16/16 A2987 RMK AO2 T01560156
  • 250954Z AUTO 00000KT 3SM BR OVC003 16/16 A2987 RMK AO2 SLP118 T01560156
  • 250854Z AUTO 00000KT 5SM BR OVC004 16/16 A2987 RMK AO2 SLP116 T01560156 58001
  • 250816Z AUTO 00000KT 5SM BR OVC004 16/16 A2987 RMK AO2 T01560156
  • 250802Z AUTO 25003KT 5SM BR OVC005 16/16 A2986 RMK AO2 CIG 002V007 T01560156
  • 250754Z AUTO 18005KT 6SM BR OVC004 16/16 A2986 RMK AO2 SLP115 T01560156

TAF KAUW
Valid from the 25 at 07:00 until the 26 at 06:00 UTC


250704Z 2507/2606 17004KT 6SM BR BKN004
TEMPO 2509/2512 1SM BR OVC002
FM251400 19008KT 2SM BR BKN005
FM251600 19010G18KT 6SM BR BKN008
FM251700 19013G20KT P6SM SCT045
FM260000 19011G16KT P6SM BKN035 WS020/22040KT
FM260400 21009G17KT P6SM -SHRA BKN024
KZMP FIR / North America



MET'MAP, your aeronautical weather chart ! - Copyright ORBIFLY December 2007 - Disclaimer

ORBIFLY MET'MAP TEAM :

Programming & Development : Alexandra Zaïnal
Concept & original design : Baudouin d'Aumeries
Assistance for programming : Marc-Olivier Méhu
Technical & hardware support : Manuel Goepfert

Contact : metmap@orbifly.com




SOURCES & CREDITS :

   NOAA       Earth
Advisory